»·PEaware :: WAT169 KBUR-KLAS

WAT169 :: KBUR-KLAS

FLIGHT INFORMATION

Flight Status: Arrived
Operator: Unknown
More flights by this operator :: More flights under this callsign
Pilot: Marty P. (27464)
Aircraft: BOEING 737-800
(B738)
More flights by this aircraft type
Origin: KBUR Bob Hope-Burbank
United States
Destination: KLAS McCarran Intl
United States
More flights between these airports :: More routes between these airports
Route: +SLAPP1 MISEN KEPEC6
File this flight plan on PilotEdge
Remarks:
Altitude:
(Current/Filed)
25,000ft
Speed:
(Current/Filed)
470kts
Departed: 16-May-20 04:20 PM
Arrived: 16-May-20 05:14 PM
Distance/Time
Traveled:
194nm/0:54
Distance/Time
To Go:
Arrived

Flight Plot

Page will automatically refresh every two minutes.


Map Options




Map Legend


Flown Route
Filed Route
Departure Airport
Arrival Airport
Navaid (VOR, NDB)
Fix

Horizontal Profiles

Position Reports

Time Latitude Longitude Heading Altitude Ground
Speed
16-May-20 15:48 34.196811 -118.351969 180 786ft 0kts
16-May-20 15:49 34.196811 -118.351969 180 786ft 0kts
16-May-20 15:50 34.196811 -118.351969 180 786ft 0kts
16-May-20 15:51 34.196811 -118.351969 180 786ft 0kts
16-May-20 15:52 34.196811 -118.351969 180 786ft 0kts
16-May-20 15:53 34.196811 -118.351969 180 786ft 0kts
16-May-20 15:54 34.196811 -118.351969 180 786ft 0kts
16-May-20 15:55 34.196811 -118.351969 180 786ft 0kts
16-May-20 15:56 34.196811 -118.351969 180 786ft 0kts
16-May-20 15:57 34.196811 -118.351969 180 786ft 0kts
16-May-20 15:58 34.196811 -118.351969 180 786ft 0kts
16-May-20 15:59 34.196811 -118.351969 180 786ft 0kts
16-May-20 16:00 34.196811 -118.351969 180 786ft 0kts
16-May-20 16:01 34.196811 -118.351969 180 786ft 0kts
16-May-20 16:03 34.196811 -118.351969 180 786ft 0kts
16-May-20 16:04 34.196811 -118.351969 180 786ft 0kts
16-May-20 16:05 34.196956 -118.351958 201 786ft 2kts
16-May-20 16:06 34.197175 -118.351519 271 786ft 0kts
16-May-20 16:07 34.197175 -118.351519 271 786ft 0kts
16-May-20 16:08 34.197175 -118.351519 271 786ft 0kts
16-May-20 16:09 34.197175 -118.351519 271 786ft 0kts
16-May-20 16:10 34.197175 -118.351519 271 786ft 0kts
16-May-20 16:11 34.197175 -118.351519 271 786ft 0kts
16-May-20 16:12 34.197185 -118.352442 271 786ft 6kts
16-May-20 16:13 34.198318 -118.355247 345 786ft 12kts
16-May-20 16:14 34.202390 -118.356377 347 786ft 14kts
16-May-20 16:15 34.206819 -118.357601 347 786ft 17kts
16-May-20 16:16 34.211077 -118.358776 346 786ft 11kts
16-May-20 16:17 34.211540 -118.359046 317 786ft 0kts
16-May-20 16:18 34.211540 -118.359046 317 786ft 0kts
16-May-20 16:18 34.210852 -118.360070 168 786ft 15kts
16-May-20 16:20 34.170428 -118.358199 213 2278ft 192kts
16-May-20 16:20 34.129861 -118.400492 221 4009ft 256kts
16-May-20 16:21 34.097150 -118.469671 296 5509ft 265kts
16-May-20 16:23 34.175708 -118.472660 25 9365ft 287kts
16-May-20 16:23 34.238934 -118.439654 22 11312ft 326kts
16-May-20 16:24 34.330677 -118.393100 22 13279ft 372kts
16-May-20 16:25 34.428727 -118.345131 18 15781ft 390kts
16-May-20 16:26 34.522055 -118.273692 36 18083ft 409kts
16-May-20 16:27 34.612152 -118.184401 38 20198ft 426kts
16-May-20 16:28 34.672996 -118.061601 76 22093ft 444kts
16-May-20 16:29 34.693543 -117.911470 85 23841ft 457kts
16-May-20 16:30 34.704278 -117.755549 86 24897ft 467kts
16-May-20 16:31 34.710954 -117.598902 86 24899ft 465kts
16-May-20 16:32 34.733268 -117.443726 73 24899ft 466kts
16-May-20 16:33 34.771878 -117.293555 72 24899ft 466kts
16-May-20 16:34 34.811771 -117.142218 71 24900ft 477kts
16-May-20 16:35 34.852958 -116.985852 71 24905ft 491kts
16-May-20 16:36 34.895015 -116.826185 69 24889ft 500kts
16-May-20 16:37 34.953189 -116.674272 57 24882ft 467kts
16-May-20 16:38 35.022443 -116.547194 53 24886ft 453kts
16-May-20 16:39 35.093638 -116.422338 48 23941ft 435kts
16-May-20 16:40 35.176213 -116.312325 43 23889ft 445kts
16-May-20 16:41 35.259123 -116.207825 43 22052ft 422kts
16-May-20 16:42 35.339389 -116.106793 43 19945ft 405kts
16-May-20 16:43 35.416258 -116.009763 43 18314ft 381kts
16-May-20 16:44 35.492453 -115.913377 44 17013ft 392kts
16-May-20 16:45 35.566817 -115.819034 45 14908ft 378kts
16-May-20 16:46 35.636760 -115.730028 46 13418ft 328kts
16-May-20 16:47 35.696349 -115.653615 46 13047ft 312kts
16-May-20 16:48 35.762991 -115.586664 22 13045ft 311kts
16-May-20 16:49 35.848043 -115.570348 1 13045ft 311kts
16-May-20 16:50 35.934871 -115.562836 15 13007ft 318kts
16-May-20 16:51 35.995094 -115.490438 68 12121ft 311kts
16-May-20 16:52 36.025655 -115.392734 76 11052ft 292kts
16-May-20 16:53 36.026876 -115.298279 96 10244ft 269kts
16-May-20 16:54 36.020535 -115.214916 97 9507ft 230kts
16-May-20 16:55 36.014493 -115.134548 96 8020ft 226kts
16-May-20 16:56 36.023031 -115.061564 32 7555ft 230kts
16-May-20 16:57 36.084799 -115.043788 2 6097ft 229kts
16-May-20 16:58 36.145412 -115.051748 332 4981ft 219kts
16-May-20 16:59 36.169200 -115.104519 236 4701ft 173kts
16-May-20 17:00 36.132155 -115.134636 204 2986ft 147kts
16-May-20 17:01 36.094440 -115.156025 200 2578ft 151kts
16-May-20 17:02 36.057720 -115.178214 204 3790ft 159kts
16-May-20 17:03 36.015974 -115.195626 187 3587ft 166kts
16-May-20 17:04 35.967228 -115.202380 186 4527ft 202kts
16-May-20 17:05 35.925747 -115.173658 76 6055ft 214kts
16-May-20 17:06 35.973901 -115.136663 21 6036ft 213kts
16-May-20 17:07 36.028869 -115.109299 24 6000ft 205kts
16-May-20 17:08 36.077587 -115.081927 24 5543ft 192kts
16-May-20 17:09 36.125819 -115.055534 6 4575ft 191kts
16-May-20 17:10 36.165112 -115.086612 288 3443ft 165kts
16-May-20 17:11 36.144555 -115.125574 199 3374ft 154kts
16-May-20 17:12 36.106704 -115.149186 202 2471ft 157kts
16-May-20 17:13 36.082049 -115.162946 164 2191ft 1kts
16-May-20 17:14 36.081597 -115.161913 94 2191ft 0kts
16-May-20 17:15 36.081611 -115.160915 90 2191ft 9kts
16-May-20 17:16 36.081623 -115.155913 90 2191ft 15kts
16-May-20 17:17 36.082478 -115.153297 36 2191ft 0kts

Navigation Log

Ident Type
Flight plan parsing failed, navigation log unavailable